• Join FlightAware (Why Join?)
  • Login
  • US Flag 
04:38AM EDT


 

Airport Tracker/Info


-or-


 

Live Flight TrackerFlight Track Log ✈ SWA2336 ✈ 11-May-2013 ✈ KTPA - KIND

Flight Track Log - Related Links

Times and Time Zones

All times are in EDT time to prevent confusion due to time zone crossing. See the SWA2336 flight status page for this flight to view local times or setup timezone preferences in your user account.

Time Position Orientation Groundspeed Altitude Reporting Facility
EDT Latitude Longitude Course Direction KTS MPH feet Rate Location/Type
10:34AM 27.9333 -82.5500 180° South 182 209 2,500  Level Tampa TRACON
10:35AM 27.8833 -82.6000 221° Southwest 241 277 5,700 2,700 Climbing Tampa TRACON
10:37AM 28.0244 -82.6622 339° North 244 281 11,000 1,980 Climbing Jacksonville Center
10:38AM 28.1186 -82.6878 347° North 316 364 11,900 1,680 Climbing Jacksonville Center
10:39AM 28.2125 -82.7136 346° North 327 376 14,400 2,580 Climbing Jacksonville Center
10:40AM 28.3064 -82.7394 346° North 332 382 17,100 2,460 Climbing Jacksonville Center
10:41AM 28.4067 -82.7675 346° North 351 404 19,400 2,460 Climbing Jacksonville Center
10:42AM 28.5192 -82.7814 354° North 375 432 22,100 2,400 Climbing Jacksonville Center
10:43AM 28.6339 -82.7719 North 389 448 24,200 1,920 Climbing Jacksonville Center
10:44AM 28.7489 -82.7717 360° North 402 463 26,000 900 Climbing Jacksonville Center
10:45AM 28.8636 -82.8097 344° North 412 474 26,000 720 Level Jacksonville Center
10:46AM 28.9806 -82.8450 345° North 412 474 27,500 1,620 Climbing Jacksonville Center
10:47AM 29.0994 -82.8856 343° North 424 488 29,300 1,200 Climbing Jacksonville Center
10:48AM 29.2186 -82.9236 344° North 437 503 30,000 300 Climbing Jacksonville Center
10:49AM 29.3353 -82.9639 343° North 437 503 29,900  Descending Jacksonville Center
10:50AM 29.4481 -83.0000 344° North 437 503 30,000  Climbing Jacksonville Center
10:51AM 29.5525 -83.0358 343° North 437 503 30,000  Level Jacksonville Center
10:52AM 29.6650 -83.0814 341° North 437 503 30,000 840 Level Jacksonville Center
10:53AM 29.7756 -83.1342 337° Northwest 432 497 31,700 960 Climbing Jacksonville Center
10:54AM 29.8819 -83.1825 339° North 426 490 32,000 120 Climbing Jacksonville Center
10:55AM 30.0008 -83.2381 338° Northwest 413 475 32,000  Level Jacksonville Center
10:56AM 30.0969 -83.2814 339° North 413 475 32,000  Level Jacksonville Center
10:57AM 30.2031 -83.3300 338° Northwest 413 475 32,000  Level Jacksonville Center
10:58AM 30.3094 -83.3786 338° Northwest 413 475 32,000  Level Jacksonville Center
10:59AM 30.4178 -83.4297 338° Northwest 413 475 32,000  Level Jacksonville Center
11:00AM 30.5261 -83.4811 338° Northwest 418 481 32,000  Level Jacksonville Center
11:01AM 30.6344 -83.5325 338° Northwest 418 481 32,000  Level Jacksonville Center
11:02AM 30.7406 -83.5839 337° Northwest 418 481 32,000  Level Jacksonville Center
11:03AM 30.8489 -83.6356 338° Northwest 418 481 32,000  Level Jacksonville Center
11:04AM 30.9656 -83.6897 338° Northwest 418 481 32,000  Level Jacksonville Center
11:05AM 31.0758 -83.7439 337° Northwest 418 481 32,000  Level Jacksonville Center
11:06AM 31.1842 -83.7958 338° Northwest 418 481 32,000  Level Jacksonville Center
11:07AM 31.2922 -83.8481 338° Northwest 418 481 32,000  Level Jacksonville Center
11:09AM 31.4900 -83.9464 337° Northwest 421 484 32,000  Level Atlanta Center
11:10AM 31.6067 -83.9828 345° North 421 484 32,000  Level Atlanta Center
11:11AM 31.7258 -84.0072 350° North 426 490 32,000  Level Atlanta Center
11:12AM 31.8467 -84.0339 349° North 433 498 32,000 720 Level Atlanta Center
11:13AM 31.9700 -84.0608 350° North 439 505 33,500 960 Climbing Atlanta Center
11:14AM 32.0953 -84.0878 350° North 450 518 34,000 240 Climbing Atlanta Center
11:15AM 32.2183 -84.1150 349° North 450 518 34,000 660 Level Atlanta Center
11:16AM 32.3414 -84.1444 349° North 450 518 35,400 1,920 Climbing Atlanta Center
11:17AM 32.4603 -84.1692 350° North 450 518 37,900 2,220 Climbing Atlanta Center
11:18AM 32.5711 -84.1967 348° North 428 493 39,900 1,020 Climbing Atlanta Center
11:19AM 32.6794 -84.2214 349° North 410 472 40,000  Climbing Atlanta Center
11:20AM 32.7881 -84.2464 349° North 400 460 40,000  Level Atlanta Center
11:21AM 32.8944 -84.2664 351° North 389 448 40,000  Level Atlanta Center
11:22AM 33.0008 -84.2939 348° North 389 448 40,000  Level Atlanta Center
11:23AM 33.1114 -84.3192 349° North 395 455 40,000  Level Atlanta Center
11:24AM 33.2178 -84.3442 349° North 395 455 40,000  Level Atlanta Center
11:25AM 33.3264 -84.3669 350° North 395 455 40,000  Level Atlanta Center
11:26AM 33.4453 -84.3947 349° North 390 449 40,000  Level Atlanta Center
11:27AM 33.5517 -84.4203 349° North 395 455 40,000  Level Atlanta Center
11:28AM 33.6619 -84.4456 349° North 395 455 40,000  Level Atlanta Center
11:29AM 33.7683 -84.4736 348° North 395 455 40,000  Level Atlanta Center
11:30AM 33.8811 -84.4992 349° North 395 455 40,000  Level Atlanta Center
11:32AM 34.1061 -84.5581 348° North 406 467 40,000  Level Atlanta Center
11:33AM 34.2147 -84.5789 351° North 428 493 40,000  Level Atlanta Center
11:34AM 34.3378 -84.6072 349° North 422 486 40,000  Level Atlanta Center
11:35AM 34.4522 -84.6358 348° North 415 478 40,000  Level Atlanta Center
11:36AM 34.5669 -84.6644 348° North 410 472 40,000  Level Atlanta Center
11:37AM 34.6753 -84.6931 348° North 410 472 40,000  Level Atlanta Center
11:38AM 34.7878 -84.7217 348° North 410 472 40,000  Level Atlanta Center
11:39AM 34.9025 -84.7506 348° North 410 472 40,000  Level Atlanta Center
11:40AM 35.0150 -84.7767 349° North 410 472 40,000  Level Atlanta Center
11:41AM 35.1275 -84.8058 348° North 410 472 40,000  Level Atlanta Center
11:42AM 35.2400 -84.8322 349° North 410 472 40,000  Level Atlanta Center
11:43AM 35.3525 -84.8611 348° North 410 472 40,000  Level Atlanta Center
11:44AM 35.4669 -84.8906 348° North 410 472 40,000  Level Atlanta Center
11:45AM 35.5794 -84.9197 348° North 410 472 40,000  Level Atlanta Center
11:46AM 35.6900 -84.9489 348° North 410 472 40,000  Level Atlanta Center
11:47AM 35.7981 -84.9733 350° North 415 478 40,000  Level Atlanta Center
11:49AM 36.0442 -85.0356 348° North 417 480 40,000  Level Indianapolis Center
11:50AM 36.1603 -85.0653 348° North 421 484 40,000  Level Indianapolis Center
11:51AM 36.2769 -85.0953 348° North 426 490 40,000 -120 Level Indianapolis Center
11:52AM 36.3936 -85.1244 349° North 426 490 39,800 -600 Descending Indianapolis Center
11:53AM 36.5086 -85.1547 348° North 423 487 38,800 -1,020 Descending Indianapolis Center
11:54AM 36.6247 -85.1858 348° North 427 491 37,800 -1,020 Descending Indianapolis Center
11:55AM 36.7431 -85.2156 349° North 433 498 36,800 -1,260 Descending Indianapolis Center
11:56AM 36.8603 -85.2472 348° North 431 496 35,300 -1,860 Descending Indianapolis Center
11:57AM 36.9756 -85.2767 348° North 424 488 33,000 -2,640 Descending Indianapolis Center
11:58AM 37.0972 -85.3092 348° North 417 480 30,000 -2,460 Descending Indianapolis Center
11:59AM 37.2133 -85.3406 348° North 423 487 28,000 -1,020 Descending Indianapolis Center
12:00PM 37.3319 -85.3706 349° North 431 496 28,000  Level Indianapolis Center
12:01PM 37.4606 -85.4039 348° North 407 468 28,000  Level Indianapolis Center
12:02PM 37.5697 -85.4342 348° North 402 463 28,000  Level Indianapolis Center
12:03PM 37.6792 -85.4631 348° North 400 460 28,000  Level Indianapolis Center
12:04PM 37.7883 -85.4919 348° North 399 459 28,000  Level Indianapolis Center
12:05PM 37.8983 -85.5214 348° North 407 468 28,000  Level Indianapolis Center
12:06PM 38.0078 -85.5508 348° North 403 464 28,000  Level Indianapolis Center
12:07PM 38.1158 -85.5792 348° North 398 458 28,000  Level Indianapolis Center
12:08PM 38.2311 -85.5917 355° North 409 471 28,000 -540 Level Indianapolis Center
12:09PM 38.3456 -85.6058 354° North 411 473 27,000 -1,800 Descending Indianapolis Center
12:10PM 38.4594 -85.6203 354° North 411 473 24,400 -2,220 Descending Indianapolis Center
12:11PM 38.5722 -85.6331 355° North 408 470 22,500 -1,800 Descending Indianapolis Center
12:12PM 38.6772 -85.6514 352° North 381 438 20,800 -1,860 Descending Indianapolis Center
12:13PM 38.7956 -85.6736 352° North 361 415 18,800 -1,800 Descending Indianapolis Center
12:14PM 38.8883 -85.6883 353° North 346 398 17,200 -1,500 Descending Indianapolis Center
12:15PM 38.9781 -85.7050 352° North 332 382 15,800 -1,440 Descending Indianapolis Center
12:16PM 39.0636 -85.7208 352° North 318 366 14,300 -1,080 Descending Indianapolis Center
12:17PM 39.1481 -85.7356 352° North 309 356 13,600 -840 Descending Indianapolis Center
12:18PM 39.2353 -85.7514 352° North 316 364 12,600 -1,020 Descending Indianapolis Center
12:19PM 39.3186 -85.7747 348° North 311 358 11,600 -1,080 Descending Indianapolis Center
12:20PM 39.3903 -85.8597 318° Northwest 291 335 10,500 -840 Descending Indianapolis Center
12:21PM 39.4536 -85.9344 318° Northwest 305 351 10,000 -300 Descending Indianapolis Center
12:23PM 39.5144 -86.0069 317° Northwest 301 346 9,900 -780 Descending Indianapolis Center
12:24PM 39.5692 -86.0719 318° Northwest 279 321 8,500 -1,440 Descending Indianapolis Center
12:25PM 39.6219 -86.1356 317° Northwest 265 305 7,000 -840 Descending Indianapolis Center
12:25PM 39.6667 -86.1500 346° North 239 275 7,000 -600 Level Indianapolis TRACON
12:26PM 39.7167 -86.1000 38° Northeast 224 258 6,000 -900 Descending Indianapolis TRACON
12:27PM 39.7269 -86.0961 16° North 233 268 5,900 -1,440 Descending Indianapolis Center
12:28PM 39.7864 -86.0625 23° Northeast 214 246 4,200 -1,200 Descending Indianapolis Center
12:29PM 39.8289 -86.0894 334° Northwest 190 219 3,500 -720 Descending Indianapolis Center
12:29PM 39.8333 -86.1333 278° West 152 175 3,000 -480 Descending Indianapolis TRACON
12:30PM 39.8167 -86.1833 247° West 158 182 2,700 -360 Descending Indianapolis TRACON
12:31PM 39.7833 -86.2167 218° Southwest 165 190 2,300 -600 Descending Indianapolis TRACON
12:32PM 39.7500 -86.2500 218° Southwest 143 165 1,600 -720 Descending Indianapolis TRACON